sensor_id;sensor_type;location;lat;lon;timestamp;pressure;altitude;pressure_sealevel;temperature;humidity
46392;BME280;32098;49.448;7.904;2022-07-17T00:02:15;99063.13;;;14.07;53.53
46392;BME280;32098;49.448;7.904;2022-07-17T00:04:42;99031.94;;;13.83;53.65
46392;BME280;32098;49.448;7.904;2022-07-17T00:07:09;99057.63;;;13.91;54.20
46392;BME280;32098;49.448;7.904;2022-07-17T00:09:36;99060.53;;;13.89;54.18
46392;BME280;32098;49.448;7.904;2022-07-17T00:12:03;99052.09;;;13.74;54.75
46392;BME280;32098;49.448;7.904;2022-07-17T00:14:29;99057.06;;;13.59;55.29
46392;BME280;32098;49.448;7.904;2022-07-17T00:16:56;99042.34;;;13.32;56.29
46392;BME280;32098;49.448;7.904;2022-07-17T00:19:25;99045.75;;;13.39;55.22
46392;BME280;32098;49.448;7.904;2022-07-17T00:21:51;99023.38;;;13.33;55.16
46392;BME280;32098;49.448;7.904;2022-07-17T00:24:18;99044.34;;;13.36;55.74
46392;BME280;32098;49.448;7.904;2022-07-17T00:26:49;99019.47;;;13.29;55.71
46392;BME280;32098;49.448;7.904;2022-07-17T00:29:16;99050.34;;;13.50;55.49
46392;BME280;32098;49.448;7.904;2022-07-17T00:31:43;99034.84;;;13.22;56.14
46392;BME280;32098;49.448;7.904;2022-07-17T00:34:10;99049.47;;;13.08;56.75
46392;BME280;32098;49.448;7.904;2022-07-17T00:36:37;99052.22;;;13.01;57.70
46392;BME280;32098;49.448;7.904;2022-07-17T00:39:03;99056.25;;;12.92;57.72
46392;BME280;32098;49.448;7.904;2022-07-17T00:41:30;99043.91;;;12.91;57.05
46392;BME280;32098;49.448;7.904;2022-07-17T00:44:05;99044.41;;;13.00;57.11
46392;BME280;32098;49.448;7.904;2022-07-17T00:46:32;99050.22;;;12.97;57.46
46392;BME280;32098;49.448;7.904;2022-07-17T00:48:58;99058.81;;;12.87;57.06
46392;BME280;32098;49.448;7.904;2022-07-17T00:51:25;99053.13;;;12.77;57.48
46392;BME280;32098;49.448;7.904;2022-07-17T00:53:52;99053.94;;;12.96;57.74
46392;BME280;32098;49.448;7.904;2022-07-17T00:56:22;99049.34;;;12.67;58.25
46392;BME280;32098;49.448;7.904;2022-07-17T00:58:50;99054.31;;;12.81;57.97
46392;BME280;32098;49.448;7.904;2022-07-17T01:01:17;99040.91;;;12.81;57.38
46392;BME280;32098;49.448;7.904;2022-07-17T01:03:44;99054.31;;;12.63;58.06
46392;BME280;32098;49.448;7.904;2022-07-17T01:06:11;99035.78;;;12.62;58.48
46392;BME280;32098;49.448;7.904;2022-07-17T01:08:37;99026.34;;;12.34;59.11
46392;BME280;32098;49.448;7.904;2022-07-17T01:11:04;99056.84;;;12.58;57.80
46392;BME280;32098;49.448;7.904;2022-07-17T01:13:32;99055.72;;;12.66;57.77
46392;BME280;32098;49.448;7.904;2022-07-17T01:15:58;99054.78;;;12.60;57.87
46392;BME280;32098;49.448;7.904;2022-07-17T01:18:25;99055.75;;;12.41;57.98
46392;BME280;32098;49.448;7.904;2022-07-17T01:20:52;99046.69;;;12.42;57.77
46392;BME280;32098;49.448;7.904;2022-07-17T01:23:19;99053.41;;;12.51;57.61
46392;BME280;32098;49.448;7.904;2022-07-17T01:25:46;99060.78;;;12.31;59.14
46392;BME280;32098;49.448;7.904;2022-07-17T01:28:13;99065.78;;;12.03;60.42
46392;BME280;32098;49.448;7.904;2022-07-17T01:30:48;99064.19;;;11.95;59.54
46392;BME280;32098;49.448;7.904;2022-07-17T01:33:15;99067.16;;;12.12;59.66
46392;BME280;32098;49.448;7.904;2022-07-17T01:35:43;99061.94;;;12.17;59.08
46392;BME280;32098;49.448;7.904;2022-07-17T01:38:09;99058.53;;;12.03;59.83
46392;BME280;32098;49.448;7.904;2022-07-17T01:40:36;99049.50;;;12.04;59.94
46392;BME280;32098;49.448;7.904;2022-07-17T01:43:03;99057.00;;;11.64;59.79
46392;BME280;32098;49.448;7.904;2022-07-17T01:45:29;99053.25;;;11.34;61.27
46392;BME280;32098;49.448;7.904;2022-07-17T01:47:56;99058.03;;;11.19;62.40
46392;BME280;32098;49.448;7.904;2022-07-17T01:50:23;99053.84;;;11.43;61.39
46392;BME280;32098;49.448;7.904;2022-07-17T01:52:49;99047.44;;;11.50;60.38
46392;BME280;32098;49.448;7.904;2022-07-17T01:55:16;98986.28;;;11.16;60.31
46392;BME280;32098;49.448;7.904;2022-07-17T01:57:43;99046.53;;;11.56;58.91
46392;BME280;32098;49.448;7.904;2022-07-17T02:00:13;99054.84;;;11.80;58.41
46392;BME280;32098;49.448;7.904;2022-07-17T02:02:41;99047.91;;;11.65;58.80
46392;BME280;32098;49.448;7.904;2022-07-17T02:05:08;99048.28;;;11.44;59.66
46392;BME280;32098;49.448;7.904;2022-07-17T02:07:34;99043.41;;;11.35;60.91
46392;BME280;32098;49.448;7.904;2022-07-17T02:10:03;99035.75;;;11.38;61.31
46392;BME280;32098;49.448;7.904;2022-07-17T02:12:29;99039.28;;;11.32;61.81
46392;BME280;32098;49.448;7.904;2022-07-17T02:14:56;99038.38;;;11.07;63.05
46392;BME280;32098;49.448;7.904;2022-07-17T02:17:22;99033.63;;;11.09;62.46
46392;BME280;32098;49.448;7.904;2022-07-17T02:19:49;99032.00;;;11.01;62.32
46392;BME280;32098;49.448;7.904;2022-07-17T02:22:15;99044.53;;;11.01;61.17
46392;BME280;32098;49.448;7.904;2022-07-17T02:24:42;99035.22;;;11.17;62.33
46392;BME280;32098;49.448;7.904;2022-07-17T02:27:08;99029.84;;;11.23;61.33
46392;BME280;32098;49.448;7.904;2022-07-17T02:29:35;99036.00;;;11.30;61.45
46392;BME280;32098;49.448;7.904;2022-07-17T02:32:02;99035.19;;;11.23;61.06
46392;BME280;32098;49.448;7.904;2022-07-17T02:34:28;99033.19;;;11.12;61.21
46392;BME280;32098;49.448;7.904;2022-07-17T02:36:55;99028.81;;;10.80;61.51
46392;BME280;32098;49.448;7.904;2022-07-17T02:39:21;99002.09;;;10.73;61.58
46392;BME280;32098;49.448;7.904;2022-07-17T02:41:48;99037.28;;;11.14;61.24
46392;BME280;32098;49.448;7.904;2022-07-17T02:47:56;99026.56;;;10.77;59.32
46392;BME280;32098;49.448;7.904;2022-07-17T02:50:22;99034.53;;;10.83;59.44
46392;BME280;32098;49.448;7.904;2022-07-17T02:52:49;99022.47;;;10.74;60.46
46392;BME280;32098;49.448;7.904;2022-07-17T02:55:16;99038.19;;;10.95;61.64
46392;BME280;32098;49.448;7.904;2022-07-17T02:58:08;99046.47;;;10.81;61.85
46392;BME280;32098;49.448;7.904;2022-07-17T03:00:35;99033.59;;;10.65;60.69
46392;BME280;32098;49.448;7.904;2022-07-17T03:03:02;99044.91;;;10.60;62.59
46392;BME280;32098;49.448;7.904;2022-07-17T03:05:28;99044.91;;;10.60;62.49
46392;BME280;32098;49.448;7.904;2022-07-17T03:07:55;99044.53;;;10.37;63.81
46392;BME280;32098;49.448;7.904;2022-07-17T03:10:21;99039.63;;;10.34;63.78
46392;BME280;32098;49.448;7.904;2022-07-17T03:12:48;99031.78;;;10.45;62.78
46392;BME280;32098;49.448;7.904;2022-07-17T03:15:15;99028.31;;;10.25;63.90
46392;BME280;32098;49.448;7.904;2022-07-17T03:17:42;99029.56;;;10.23;63.48
46392;BME280;32098;49.448;7.904;2022-07-17T03:20:09;99044.72;;;10.35;60.69
46392;BME280;32098;49.448;7.904;2022-07-17T03:22:36;99034.41;;;10.59;60.82
46392;BME280;32098;49.448;7.904;2022-07-17T03:25:03;99041.03;;;10.49;61.73
46392;BME280;32098;49.448;7.904;2022-07-17T03:27:29;99035.09;;;10.34;62.96
46392;BME280;32098;49.448;7.904;2022-07-17T03:29:56;99041.06;;;10.30;63.40
46392;BME280;32098;49.448;7.904;2022-07-17T03:32:23;99032.44;;;10.21;62.78
46392;BME280;32098;49.448;7.904;2022-07-17T03:34:49;99049.44;;;10.46;62.29
46392;BME280;32098;49.448;7.904;2022-07-17T03:37:16;99046.38;;;10.49;62.52
46392;BME280;32098;49.448;7.904;2022-07-17T03:39:43;99041.22;;;10.48;62.51
46392;BME280;32098;49.448;7.904;2022-07-17T03:42:09;99052.94;;;10.40;61.81
46392;BME280;32098;49.448;7.904;2022-07-17T03:44:36;99051.94;;;10.28;63.12
46392;BME280;32098;49.448;7.904;2022-07-17T03:47:03;99052.19;;;10.07;62.59
46392;BME280;32098;49.448;7.904;2022-07-17T03:49:29;99055.81;;;9.93;63.92
46392;BME280;32098;49.448;7.904;2022-07-17T03:51:55;99060.97;;;10.01;62.77
46392;BME280;32098;49.448;7.904;2022-07-17T03:54:22;99051.50;;;10.05;62.99
46392;BME280;32098;49.448;7.904;2022-07-17T03:56:49;99059.31;;;9.94;63.60
46392;BME280;32098;49.448;7.904;2022-07-17T03:59:15;99054.44;;;10.17;62.90
46392;BME280;32098;49.448;7.904;2022-07-17T04:01:42;99050.31;;;10.21;63.82
46392;BME280;32098;49.448;7.904;2022-07-17T04:04:08;99058.09;;;10.16;64.45
46392;BME280;32098;49.448;7.904;2022-07-17T04:06:35;99061.19;;;10.13;63.59
46392;BME280;32098;49.448;7.904;2022-07-17T04:09:03;99060.38;;;10.19;63.10
46392;BME280;32098;49.448;7.904;2022-07-17T04:11:29;99062.38;;;10.43;62.76
46392;BME280;32098;49.448;7.904;2022-07-17T04:13:56;99058.25;;;10.67;62.23
46392;BME280;32098;49.448;7.904;2022-07-17T04:16:23;99057.16;;;10.87;61.76
46392;BME280;32098;49.448;7.904;2022-07-17T04:18:49;99049.41;;;11.17;61.15
46392;BME280;32098;49.448;7.904;2022-07-17T04:21:16;99046.44;;;11.45;60.63
46392;BME280;32098;49.448;7.904;2022-07-17T04:23:42;99047.41;;;11.82;58.80
46392;BME280;32098;49.448;7.904;2022-07-17T04:26:09;99056.03;;;12.08;57.81
46392;BME280;32098;49.448;7.904;2022-07-17T04:28:38;99061.41;;;12.33;57.27
46392;BME280;32098;49.448;7.904;2022-07-17T04:31:05;99055.66;;;12.54;56.66
46392;BME280;32098;49.448;7.904;2022-07-17T04:33:31;99055.28;;;12.69;55.89
46392;BME280;32098;49.448;7.904;2022-07-17T04:35:58;99056.69;;;12.53;56.25
46392;BME280;32098;49.448;7.904;2022-07-17T04:38:24;99053.34;;;12.76;55.98
46392;BME280;32098;49.448;7.904;2022-07-17T04:40:51;99037.34;;;12.87;55.17
46392;BME280;32098;49.448;7.904;2022-07-17T04:43:17;99069.34;;;13.19;54.77
46392;BME280;32098;49.448;7.904;2022-07-17T04:45:44;99059.09;;;13.16;55.08
46392;BME280;32098;49.448;7.904;2022-07-17T04:48:10;98960.31;;;12.47;55.83
46392;BME280;32098;49.448;7.904;2022-07-17T04:50:37;99072.69;;;13.14;55.55
46392;BME280;32098;49.448;7.904;2022-07-17T04:53:03;99079.41;;;13.23;55.61
46392;BME280;32098;49.448;7.904;2022-07-17T04:55:30;99076.81;;;13.46;55.29
46392;BME280;32098;49.448;7.904;2022-07-17T04:57:56;99075.53;;;13.01;56.04
46392;BME280;32098;49.448;7.904;2022-07-17T05:00:23;99079.47;;;12.98;56.38
46392;BME280;32098;49.448;7.904;2022-07-17T05:02:49;99081.38;;;13.46;55.51
46392;BME280;32098;49.448;7.904;2022-07-17T05:05:16;99055.56;;;13.63;54.82
46392;BME280;32098;49.448;7.904;2022-07-17T05:07:42;99080.13;;;13.78;54.82
46392;BME280;32098;49.448;7.904;2022-07-17T05:10:09;99086.56;;;13.89;54.40
46392;BME280;32098;49.448;7.904;2022-07-17T05:12:36;99074.00;;;13.59;54.40
46392;BME280;32098;49.448;7.904;2022-07-17T05:15:03;99059.56;;;13.72;54.56
46392;BME280;32098;49.448;7.904;2022-07-17T05:17:29;99086.59;;;14.00;53.62
46392;BME280;32098;49.448;7.904;2022-07-17T05:19:56;99100.16;;;14.05;53.83
46392;BME280;32098;49.448;7.904;2022-07-17T05:22:22;99103.09;;;14.15;52.19
46392;BME280;32098;49.448;7.904;2022-07-17T05:24:49;99114.88;;;14.56;51.92
46392;BME280;32098;49.448;7.904;2022-07-17T05:27:15;99088.25;;;15.17;50.81
46392;BME280;32098;49.448;7.904;2022-07-17T05:29:42;99091.88;;;15.79;49.62
46392;BME280;32098;49.448;7.904;2022-07-17T05:32:08;99097.31;;;16.29;49.27
46392;BME280;32098;49.448;7.904;2022-07-17T05:34:35;99099.84;;;16.86;47.63
46392;BME280;32098;49.448;7.904;2022-07-17T05:37:01;99086.25;;;17.19;47.14
46392;BME280;32098;49.448;7.904;2022-07-17T05:39:28;99096.59;;;17.43;45.90
46392;BME280;32098;49.448;7.904;2022-07-17T05:41:54;99096.28;;;17.67;46.43
46392;BME280;32098;49.448;7.904;2022-07-17T05:44:21;99090.38;;;17.96;45.07
46392;BME280;32098;49.448;7.904;2022-07-17T05:46:47;99096.72;;;18.39;43.99
46392;BME280;32098;49.448;7.904;2022-07-17T05:49:14;99089.84;;;18.63;43.81
46392;BME280;32098;49.448;7.904;2022-07-17T05:51:40;99088.75;;;18.96;42.73
46392;BME280;32098;49.448;7.904;2022-07-17T05:54:07;99094.19;;;19.06;42.30
46392;BME280;32098;49.448;7.904;2022-07-17T05:56:33;99088.09;;;19.35;41.63
46392;BME280;32098;49.448;7.904;2022-07-17T05:59:00;99077.31;;;19.56;41.05
46392;BME280;32098;49.448;7.904;2022-07-17T06:01:26;99086.06;;;19.78;41.00
46392;BME280;32098;49.448;7.904;2022-07-17T06:03:53;99084.50;;;20.02;40.64
46392;BME280;32098;49.448;7.904;2022-07-17T06:06:20;99082.59;;;20.18;40.13
46392;BME280;32098;49.448;7.904;2022-07-17T06:08:47;99076.91;;;20.19;39.74
46392;BME280;32098;49.448;7.904;2022-07-17T06:11:14;99084.25;;;20.49;39.83
46392;BME280;32098;49.448;7.904;2022-07-17T06:13:40;99090.22;;;20.61;38.99
46392;BME280;32098;49.448;7.904;2022-07-17T06:16:07;99089.84;;;20.93;38.26
46392;BME280;32098;49.448;7.904;2022-07-17T06:18:34;99090.44;;;20.95;38.71
46392;BME280;32098;49.448;7.904;2022-07-17T06:21:01;99083.31;;;21.04;38.36
46392;BME280;32098;49.448;7.904;2022-07-17T06:23:27;99080.81;;;21.28;38.04
46392;BME280;32098;49.448;7.904;2022-07-17T06:25:54;99085.84;;;21.59;38.52
46392;BME280;32098;49.448;7.904;2022-07-17T06:28:20;99080.56;;;21.73;37.78
46392;BME280;32098;49.448;7.904;2022-07-17T06:30:47;99084.13;;;21.78;37.93
46392;BME280;32098;49.448;7.904;2022-07-17T06:33:14;99074.31;;;21.82;38.20
46392;BME280;32098;49.448;7.904;2022-07-17T06:35:40;99091.13;;;21.90;37.18
46392;BME280;32098;49.448;7.904;2022-07-17T06:38:11;99087.03;;;22.26;37.08
46392;BME280;32098;49.448;7.904;2022-07-17T06:40:37;99087.13;;;22.50;36.45
46392;BME280;32098;49.448;7.904;2022-07-17T06:43:05;99083.19;;;22.89;36.09
46392;BME280;32098;49.448;7.904;2022-07-17T06:45:32;99082.97;;;23.09;35.26
46392;BME280;32098;49.448;7.904;2022-07-17T06:47:59;99082.97;;;23.33;34.56
46392;BME280;32098;49.448;7.904;2022-07-17T06:50:26;99083.53;;;23.54;34.24
46392;BME280;32098;49.448;7.904;2022-07-17T06:52:52;99076.97;;;23.73;34.25
46392;BME280;32098;49.448;7.904;2022-07-17T06:55:19;99079.88;;;24.01;34.74
46392;BME280;32098;49.448;7.904;2022-07-17T06:57:45;99074.13;;;24.02;32.97
46392;BME280;32098;49.448;7.904;2022-07-17T07:00:12;99072.00;;;24.31;33.25
46392;BME280;32098;49.448;7.904;2022-07-17T07:02:39;99068.53;;;24.26;33.34
46392;BME280;32098;49.448;7.904;2022-07-17T07:05:06;99066.31;;;24.47;32.90
46392;BME280;32098;49.448;7.904;2022-07-17T07:07:32;99075.97;;;24.58;32.44
46392;BME280;32098;49.448;7.904;2022-07-17T07:09:59;99063.84;;;24.77;32.04
46392;BME280;32098;49.448;7.904;2022-07-17T07:12:25;99062.53;;;24.75;31.50
46392;BME280;32098;49.448;7.904;2022-07-17T07:14:51;99064.78;;;25.00;29.92
46392;BME280;32098;49.448;7.904;2022-07-17T07:17:18;99075.50;;;24.83;30.04
46392;BME280;32098;49.448;7.904;2022-07-17T07:19:46;99075.41;;;25.29;30.59
46392;BME280;32098;49.448;7.904;2022-07-17T07:22:12;99073.94;;;25.58;29.36
46392;BME280;32098;49.448;7.904;2022-07-17T07:24:39;99064.75;;;25.54;29.37
46392;BME280;32098;49.448;7.904;2022-07-17T07:27:05;99067.22;;;25.92;29.33
46392;BME280;32098;49.448;7.904;2022-07-17T07:29:32;99070.78;;;25.79;28.86
46392;BME280;32098;49.448;7.904;2022-07-17T07:31:58;99068.41;;;25.99;28.92
46392;BME280;32098;49.448;7.904;2022-07-17T07:34:25;99064.09;;;26.07;29.07
46392;BME280;32098;49.448;7.904;2022-07-17T07:36:51;99060.31;;;26.39;28.37
46392;BME280;32098;49.448;7.904;2022-07-17T07:39:18;99059.84;;;26.37;27.96
46392;BME280;32098;49.448;7.904;2022-07-17T07:41:45;99063.31;;;26.29;27.50
46392;BME280;32098;49.448;7.904;2022-07-17T07:44:12;99061.59;;;26.33;28.06
46392;BME280;32098;49.448;7.904;2022-07-17T07:46:51;99060.13;;;26.57;28.86
46392;BME280;32098;49.448;7.904;2022-07-17T07:49:18;99059.09;;;26.75;27.18
46392;BME280;32098;49.448;7.904;2022-07-17T07:51:44;99066.00;;;26.20;26.89
46392;BME280;32098;49.448;7.904;2022-07-17T07:54:29;99050.56;;;25.66;27.37
46392;BME280;32098;49.448;7.904;2022-07-17T07:56:56;99055.81;;;24.54;28.90
46392;BME280;32098;49.448;7.904;2022-07-17T07:59:23;99063.75;;;24.96;28.86
46392;BME280;32098;49.448;7.904;2022-07-17T08:01:49;99056.59;;;25.27;28.13
46392;BME280;32098;49.448;7.904;2022-07-17T08:04:16;99058.22;;;25.28;28.35
46392;BME280;32098;49.448;7.904;2022-07-17T08:06:42;99068.72;;;25.21;27.76
46392;BME280;32098;49.448;7.904;2022-07-17T08:09:09;99071.91;;;25.28;28.54
46392;BME280;32098;49.448;7.904;2022-07-17T08:11:35;99076.63;;;25.09;27.76
46392;BME280;32098;49.448;7.904;2022-07-17T08:14:02;99074.00;;;24.26;28.39
46392;BME280;32098;49.448;7.904;2022-07-17T08:16:40;99070.25;;;24.22;28.42
46392;BME280;32098;49.448;7.904;2022-07-17T08:19:06;99072.28;;;24.49;29.05
46392;BME280;32098;49.448;7.904;2022-07-17T08:21:33;99075.63;;;25.05;28.50
46392;BME280;32098;49.448;7.904;2022-07-17T08:23:59;99083.19;;;24.94;27.91
46392;BME280;32098;49.448;7.904;2022-07-17T08:26:26;99080.13;;;24.36;29.00
46392;BME280;32098;49.448;7.904;2022-07-17T08:28:53;99086.72;;;24.68;28.43
46392;BME280;32098;49.448;7.904;2022-07-17T08:31:20;99084.47;;;25.16;27.47
46392;BME280;32098;49.448;7.904;2022-07-17T08:33:46;99070.94;;;25.46;27.43
46392;BME280;32098;49.448;7.904;2022-07-17T08:36:13;99082.63;;;25.88;26.93
46392;BME280;32098;49.448;7.904;2022-07-17T08:38:39;99074.78;;;25.73;26.75
46392;BME280;32098;49.448;7.904;2022-07-17T08:41:07;99072.56;;;25.47;27.50
46392;BME280;32098;49.448;7.904;2022-07-17T08:43:36;99078.44;;;25.41;27.22
46392;BME280;32098;49.448;7.904;2022-07-17T08:46:11;99067.50;;;25.54;26.30
46392;BME280;32098;49.448;7.904;2022-07-17T08:48:42;99074.38;;;24.84;27.31
46392;BME280;32098;49.448;7.904;2022-07-17T08:51:11;99077.25;;;25.06;27.87
46392;BME280;32098;49.448;7.904;2022-07-17T08:53:38;99075.44;;;25.02;27.66
46392;BME280;32098;49.448;7.904;2022-07-17T08:56:06;99075.94;;;25.17;27.59
46392;BME280;32098;49.448;7.904;2022-07-17T08:58:32;99077.50;;;24.77;27.18
46392;BME280;32098;49.448;7.904;2022-07-17T09:00:59;99077.75;;;24.49;28.13
46392;BME280;32098;49.448;7.904;2022-07-17T09:03:26;99082.88;;;24.96;27.76
46392;BME280;32098;49.448;7.904;2022-07-17T09:05:54;99074.09;;;24.85;28.41
46392;BME280;32098;49.448;7.904;2022-07-17T09:08:22;99072.06;;;24.13;28.23
46392;BME280;32098;49.448;7.904;2022-07-17T09:10:51;99066.47;;;24.96;27.25
46392;BME280;32098;49.448;7.904;2022-07-17T09:13:29;99070.75;;;25.29;26.92
46392;BME280;32098;49.448;7.904;2022-07-17T09:18:25;99057.34;;;25.69;27.20
46392;BME280;32098;49.448;7.904;2022-07-17T09:20:57;99052.88;;;25.59;26.89
46392;BME280;32098;49.448;7.904;2022-07-17T09:23:25;99057.66;;;25.53;27.36
46392;BME280;32098;49.448;7.904;2022-07-17T09:25:55;99039.94;;;25.65;27.12
46392;BME280;32098;49.448;7.904;2022-07-17T09:28:23;99041.56;;;25.52;26.62
46392;BME280;32098;49.448;7.904;2022-07-17T09:30:53;99046.38;;;25.82;27.04
46392;BME280;32098;49.448;7.904;2022-07-17T09:33:25;99047.00;;;26.01;26.99
46392;BME280;32098;49.448;7.904;2022-07-17T09:36:06;99043.59;;;26.18;26.62
46392;BME280;32098;49.448;7.904;2022-07-17T09:38:38;99035.94;;;26.51;26.16
46392;BME280;32098;49.448;7.904;2022-07-17T09:43:40;99034.81;;;26.82;25.10
46392;BME280;32098;49.448;7.904;2022-07-17T09:46:13;99028.25;;;25.73;25.27
46392;BME280;32098;49.448;7.904;2022-07-17T09:48:44;99037.41;;;25.90;26.16
46392;BME280;32098;49.448;7.904;2022-07-17T09:51:34;99029.81;;;26.09;25.19
46392;BME280;32098;49.448;7.904;2022-07-17T09:54:02;99026.72;;;26.25;26.57
46392;BME280;32098;49.448;7.904;2022-07-17T09:56:32;99035.63;;;26.30;25.94
46392;BME280;32098;49.448;7.904;2022-07-17T09:59:10;99029.72;;;26.67;25.83
46392;BME280;32098;49.448;7.904;2022-07-17T10:01:40;99032.50;;;26.76;25.36
46392;BME280;32098;49.448;7.904;2022-07-17T10:04:08;99039.78;;;26.50;25.89
46392;BME280;32098;49.448;7.904;2022-07-17T10:06:37;99045.28;;;26.28;25.48
46392;BME280;32098;49.448;7.904;2022-07-17T10:09:03;99034.56;;;26.40;25.48
46392;BME280;32098;49.448;7.904;2022-07-17T10:11:34;99043.19;;;26.55;25.00
46392;BME280;32098;49.448;7.904;2022-07-17T10:14:09;99021.69;;;26.49;25.00
46392;BME280;32098;49.448;7.904;2022-07-17T10:16:37;99036.16;;;26.94;24.42
46392;BME280;32098;49.448;7.904;2022-07-17T10:19:22;99028.88;;;26.36;24.87
46392;BME280;32098;49.448;7.904;2022-07-17T10:22:00;99038.59;;;26.42;25.20
46392;BME280;32098;49.448;7.904;2022-07-17T10:24:28;99037.63;;;26.38;24.41
46392;BME280;32098;49.448;7.904;2022-07-17T10:26:56;99040.72;;;26.76;24.09
46392;BME280;32098;49.448;7.904;2022-07-17T10:29:34;99042.66;;;26.75;22.86
46392;BME280;32098;49.448;7.904;2022-07-17T10:32:07;99046.69;;;27.09;23.43
46392;BME280;32098;49.448;7.904;2022-07-17T10:37:25;99042.31;;;27.81;21.74
46392;BME280;32098;49.448;7.904;2022-07-17T10:39:55;99039.88;;;27.88;22.77
46392;BME280;32098;49.448;7.904;2022-07-17T10:45:16;99037.47;;;27.78;22.22
46392;BME280;32098;49.448;7.904;2022-07-17T10:50:32;99036.84;;;27.16;22.80
46392;BME280;32098;49.448;7.904;2022-07-17T10:55:40;99022.75;;;27.57;23.44
46392;BME280;32098;49.448;7.904;2022-07-17T10:58:22;99029.88;;;27.75;22.64
46392;BME280;32098;49.448;7.904;2022-07-17T11:03:36;99027.31;;;27.14;23.39
46392;BME280;32098;49.448;7.904;2022-07-17T11:06:08;99030.97;;;27.74;23.49
46392;BME280;32098;49.448;7.904;2022-07-17T11:08:40;99025.50;;;27.74;22.63
46392;BME280;32098;49.448;7.904;2022-07-17T11:11:08;99024.69;;;27.65;21.74
46392;BME280;32098;49.448;7.904;2022-07-17T11:13:41;99027.28;;;27.87;22.78
46392;BME280;32098;49.448;7.904;2022-07-17T11:16:09;99007.91;;;28.09;22.30
46392;BME280;32098;49.448;7.904;2022-07-17T11:18:35;99007.41;;;28.07;23.23
46392;BME280;32098;49.448;7.904;2022-07-17T11:21:04;99022.25;;;27.55;22.46
46392;BME280;32098;49.448;7.904;2022-07-17T11:23:32;99020.94;;;27.44;22.41
46392;BME280;32098;49.448;7.904;2022-07-17T11:26:03;99029.09;;;26.70;23.36
46392;BME280;32098;49.448;7.904;2022-07-17T11:31:02;99007.09;;;26.93;23.54
46392;BME280;32098;49.448;7.904;2022-07-17T11:33:29;99010.41;;;27.20;21.38
46392;BME280;32098;49.448;7.904;2022-07-17T11:35:56;99008.47;;;27.21;21.27
46392;BME280;32098;49.448;7.904;2022-07-17T11:38:27;99031.69;;;27.06;21.04
46392;BME280;32098;49.448;7.904;2022-07-17T11:40:54;99019.09;;;27.14;21.65
46392;BME280;32098;49.448;7.904;2022-07-17T11:43:39;99011.66;;;27.14;20.95
46392;BME280;32098;49.448;7.904;2022-07-17T11:46:07;99020.25;;;26.73;22.65
46392;BME280;32098;49.448;7.904;2022-07-17T11:48:34;99015.28;;;26.00;22.19
46392;BME280;32098;49.448;7.904;2022-07-17T11:51:01;99021.31;;;26.11;23.37
46392;BME280;32098;49.448;7.904;2022-07-17T11:53:36;99022.53;;;26.05;21.46
46392;BME280;32098;49.448;7.904;2022-07-17T11:56:04;99019.31;;;26.03;22.48
46392;BME280;32098;49.448;7.904;2022-07-17T11:58:45;99027.53;;;25.81;23.21
46392;BME280;32098;49.448;7.904;2022-07-17T12:01:14;99005.13;;;25.29;23.06
46392;BME280;32098;49.448;7.904;2022-07-17T12:03:41;99018.91;;;24.97;23.77
46392;BME280;32098;49.448;7.904;2022-07-17T12:06:08;99002.41;;;25.29;24.00
46392;BME280;32098;49.448;7.904;2022-07-17T12:08:36;99014.88;;;25.22;22.95
46392;BME280;32098;49.448;7.904;2022-07-17T12:11:07;99014.53;;;24.96;23.52
46392;BME280;32098;49.448;7.904;2022-07-17T12:13:43;99008.00;;;25.11;23.06
46392;BME280;32098;49.448;7.904;2022-07-17T12:16:24;99013.88;;;25.18;22.85
46392;BME280;32098;49.448;7.904;2022-07-17T12:21:56;99019.06;;;25.41;22.29
46392;BME280;32098;49.448;7.904;2022-07-17T12:24:31;99003.91;;;25.35;22.76
46392;BME280;32098;49.448;7.904;2022-07-17T12:27:02;99001.19;;;25.35;22.09
46392;BME280;32098;49.448;7.904;2022-07-17T12:29:29;99011.31;;;25.35;22.27
46392;BME280;32098;49.448;7.904;2022-07-17T12:32:13;99007.09;;;25.02;21.70
46392;BME280;32098;49.448;7.904;2022-07-17T12:34:42;99006.59;;;25.49;21.32
46392;BME280;32098;49.448;7.904;2022-07-17T12:37:17;99006.41;;;25.81;21.53
46392;BME280;32098;49.448;7.904;2022-07-17T12:39:45;99011.09;;;25.81;20.84
46392;BME280;32098;49.448;7.904;2022-07-17T12:42:16;98980.53;;;26.09;21.50
46392;BME280;32098;49.448;7.904;2022-07-17T12:44:43;99003.38;;;26.27;20.23
46392;BME280;32098;49.448;7.904;2022-07-17T12:47:10;98996.16;;;26.31;20.99
46392;BME280;32098;49.448;7.904;2022-07-17T12:49:37;98983.34;;;26.49;20.43
46392;BME280;32098;49.448;7.904;2022-07-17T12:52:06;98997.09;;;26.57;19.05
46392;BME280;32098;49.448;7.904;2022-07-17T12:54:32;98991.00;;;26.60;20.16
46392;BME280;32098;49.448;7.904;2022-07-17T12:56:59;98994.56;;;26.69;21.29
46392;BME280;32098;49.448;7.904;2022-07-17T12:59:26;98989.19;;;26.25;19.47
46392;BME280;32098;49.448;7.904;2022-07-17T13:01:52;98992.31;;;25.88;21.14
46392;BME280;32098;49.448;7.904;2022-07-17T13:04:20;98996.84;;;25.56;21.68
46392;BME280;32098;49.448;7.904;2022-07-17T13:06:47;98990.25;;;25.71;20.54
46392;BME280;32098;49.448;7.904;2022-07-17T13:09:14;98993.91;;;25.89;20.79
46392;BME280;32098;49.448;7.904;2022-07-17T13:11:42;98994.06;;;26.06;22.95
46392;BME280;32098;49.448;7.904;2022-07-17T13:14:11;98987.44;;;25.63;22.37
46392;BME280;32098;49.448;7.904;2022-07-17T13:16:39;98996.25;;;25.59;22.47
46392;BME280;32098;49.448;7.904;2022-07-17T13:19:05;98989.81;;;25.78;23.04
46392;BME280;32098;49.448;7.904;2022-07-17T13:21:32;98986.22;;;26.13;21.35
46392;BME280;32098;49.448;7.904;2022-07-17T13:23:59;98985.16;;;26.53;21.37
46392;BME280;32098;49.448;7.904;2022-07-17T13:26:26;98972.97;;;26.68;21.67
46392;BME280;32098;49.448;7.904;2022-07-17T13:28:52;98974.75;;;26.33;22.71
46392;BME280;32098;49.448;7.904;2022-07-17T13:31:19;98973.25;;;26.27;21.73
46392;BME280;32098;49.448;7.904;2022-07-17T13:33:46;98981.03;;;25.53;21.96